sensor_id;sensor_type;location;lat;lon;timestamp;P1;durP1;ratioP1;P2;durP2;ratioP2
74551;SDS011;63025;55.472;38.432;2023-09-19T00:01:40;17.98;;;11.10;;
74551;SDS011;63025;55.472;38.432;2023-09-19T00:04:07;19.40;;;11.57;;
74551;SDS011;63025;55.472;38.432;2023-09-19T00:06:43;18.17;;;10.68;;
74551;SDS011;63025;55.472;38.432;2023-09-19T00:09:10;20.80;;;10.98;;
74551;SDS011;63025;55.472;38.432;2023-09-19T00:11:36;23.92;;;13.57;;
74551;SDS011;63025;55.472;38.432;2023-09-19T00:14:03;22.02;;;11.77;;
74551;SDS011;63025;55.472;38.432;2023-09-19T00:16:33;20.10;;;11.32;;
74551;SDS011;63025;55.472;38.432;2023-09-19T00:18:59;16.27;;;10.65;;
74551;SDS011;63025;55.472;38.432;2023-09-19T00:21:28;22.65;;;11.60;;
74551;SDS011;63025;55.472;38.432;2023-09-19T00:23:57;19.90;;;11.82;;
74551;SDS011;63025;55.472;38.432;2023-09-19T00:26:24;17.65;;;10.65;;
74551;SDS011;63025;55.472;38.432;2023-09-19T00:28:54;21.92;;;13.00;;
74551;SDS011;63025;55.472;38.432;2023-09-19T00:31:24;23.02;;;13.55;;
74551;SDS011;63025;55.472;38.432;2023-09-19T00:33:58;23.25;;;14.07;;
74551;SDS011;63025;55.472;38.432;2023-09-19T00:36:25;18.52;;;11.93;;
74551;SDS011;63025;55.472;38.432;2023-09-19T00:38:56;19.73;;;11.70;;
74551;SDS011;63025;55.472;38.432;2023-09-19T00:41:22;25.17;;;14.43;;
74551;SDS011;63025;55.472;38.432;2023-09-19T00:43:52;21.73;;;12.60;;
74551;SDS011;63025;55.472;38.432;2023-09-19T00:46:18;21.80;;;12.88;;
74551;SDS011;63025;55.472;38.432;2023-09-19T00:48:45;22.52;;;13.32;;
74551;SDS011;63025;55.472;38.432;2023-09-19T00:51:11;20.48;;;12.23;;
74551;SDS011;63025;55.472;38.432;2023-09-19T00:53:39;24.98;;;14.27;;
74551;SDS011;63025;55.472;38.432;2023-09-19T00:56:11;19.25;;;11.98;;
74551;SDS011;63025;55.472;38.432;2023-09-19T00:58:38;18.20;;;11.20;;
74551;SDS011;63025;55.472;38.432;2023-09-19T01:01:06;24.77;;;13.32;;
74551;SDS011;63025;55.472;38.432;2023-09-19T01:03:36;16.85;;;10.90;;
74551;SDS011;63025;55.472;38.432;2023-09-19T01:06:07;26.35;;;12.98;;
74551;SDS011;63025;55.472;38.432;2023-09-19T01:08:36;18.15;;;10.68;;
74551;SDS011;63025;55.472;38.432;2023-09-19T01:11:08;13.73;;;9.32;;
74551;SDS011;63025;55.472;38.432;2023-09-19T01:13:55;16.23;;;10.05;;
74551;SDS011;63025;55.472;38.432;2023-09-19T01:16:36;19.23;;;11.25;;
74551;SDS011;63025;55.472;38.432;2023-09-19T01:24:34;18.50;;;11.20;;
74551;SDS011;63025;55.472;38.432;2023-09-19T01:27:39;18.58;;;11.13;;
74551;SDS011;63025;55.472;38.432;2023-09-19T01:30:33;16.00;;;10.32;;
74551;SDS011;63025;55.472;38.432;2023-09-19T01:33:06;20.83;;;13.15;;
74551;SDS011;63025;55.472;38.432;2023-09-19T01:35:44;20.42;;;12.60;;
74551;SDS011;63025;55.472;38.432;2023-09-19T01:38:11;16.25;;;9.88;;
74551;SDS011;63025;55.472;38.432;2023-09-19T01:40:42;16.55;;;11.05;;
74551;SDS011;63025;55.472;38.432;2023-09-19T01:43:20;15.35;;;10.55;;
74551;SDS011;63025;55.472;38.432;2023-09-19T01:45:59;19.83;;;13.10;;
74551;SDS011;63025;55.472;38.432;2023-09-19T01:54:03;21.63;;;12.45;;
74551;SDS011;63025;55.472;38.432;2023-09-19T01:56:36;18.83;;;12.13;;
74551;SDS011;63025;55.472;38.432;2023-09-19T01:59:16;19.52;;;11.57;;
74551;SDS011;63025;55.472;38.432;2023-09-19T02:01:46;18.02;;;11.70;;
74551;SDS011;63025;55.472;38.432;2023-09-19T02:04:14;15.43;;;10.80;;
74551;SDS011;63025;55.472;38.432;2023-09-19T02:06:41;19.75;;;13.07;;
74551;SDS011;63025;55.472;38.432;2023-09-19T02:09:11;20.33;;;11.48;;
74551;SDS011;63025;55.472;38.432;2023-09-19T02:11:37;15.88;;;10.48;;
74551;SDS011;63025;55.472;38.432;2023-09-19T02:14:04;16.92;;;11.45;;
74551;SDS011;63025;55.472;38.432;2023-09-19T02:16:35;18.52;;;12.10;;
74551;SDS011;63025;55.472;38.432;2023-09-19T02:19:01;20.63;;;11.60;;
74551;SDS011;63025;55.472;38.432;2023-09-19T02:21:31;17.10;;;10.88;;
74551;SDS011;63025;55.472;38.432;2023-09-19T02:23:58;20.00;;;11.55;;
74551;SDS011;63025;55.472;38.432;2023-09-19T02:26:24;20.27;;;11.75;;
74551;SDS011;63025;55.472;38.432;2023-09-19T02:28:50;19.65;;;11.35;;
74551;SDS011;63025;55.472;38.432;2023-09-19T02:31:16;20.42;;;11.15;;
74551;SDS011;63025;55.472;38.432;2023-09-19T02:33:42;17.95;;;10.90;;
74551;SDS011;63025;55.472;38.432;2023-09-19T02:36:09;16.92;;;10.98;;
74551;SDS011;63025;55.472;38.432;2023-09-19T02:38:35;16.88;;;9.80;;
74551;SDS011;63025;55.472;38.432;2023-09-19T02:41:01;15.45;;;10.25;;
74551;SDS011;63025;55.472;38.432;2023-09-19T02:43:27;17.65;;;10.60;;
74551;SDS011;63025;55.472;38.432;2023-09-19T02:45:53;15.95;;;10.20;;
74551;SDS011;63025;55.472;38.432;2023-09-19T02:48:20;17.17;;;10.30;;
74551;SDS011;63025;55.472;38.432;2023-09-19T02:50:46;14.63;;;9.80;;
74551;SDS011;63025;55.472;38.432;2023-09-19T02:53:15;17.13;;;10.48;;
74551;SDS011;63025;55.472;38.432;2023-09-19T02:55:42;15.20;;;10.43;;
74551;SDS011;63025;55.472;38.432;2023-09-19T02:58:08;17.63;;;9.70;;
74551;SDS011;63025;55.472;38.432;2023-09-19T03:00:37;16.42;;;9.98;;
74551;SDS011;63025;55.472;38.432;2023-09-19T03:03:03;15.40;;;9.90;;
74551;SDS011;63025;55.472;38.432;2023-09-19T03:05:31;17.35;;;9.98;;
74551;SDS011;63025;55.472;38.432;2023-09-19T03:07:58;17.10;;;9.98;;
74551;SDS011;63025;55.472;38.432;2023-09-19T03:10:26;15.70;;;10.35;;
74551;SDS011;63025;55.472;38.432;2023-09-19T03:12:56;15.15;;;9.52;;
74551;SDS011;63025;55.472;38.432;2023-09-19T03:15:22;17.20;;;9.93;;
74551;SDS011;63025;55.472;38.432;2023-09-19T03:17:50;17.48;;;10.40;;
74551;SDS011;63025;55.472;38.432;2023-09-19T03:20:21;19.63;;;10.68;;
74551;SDS011;63025;55.472;38.432;2023-09-19T03:22:50;16.85;;;9.88;;
74551;SDS011;63025;55.472;38.432;2023-09-19T03:25:16;17.42;;;10.27;;
74551;SDS011;63025;55.472;38.432;2023-09-19T03:27:46;16.77;;;10.25;;
74551;SDS011;63025;55.472;38.432;2023-09-19T03:30:13;15.48;;;9.93;;
74551;SDS011;63025;55.472;38.432;2023-09-19T03:32:47;13.98;;;9.85;;
74551;SDS011;63025;55.472;38.432;2023-09-19T03:35:16;18.60;;;10.55;;
74551;SDS011;63025;55.472;38.432;2023-09-19T03:37:42;14.95;;;10.05;;
74551;SDS011;63025;55.472;38.432;2023-09-19T03:40:09;16.35;;;10.65;;
74551;SDS011;63025;55.472;38.432;2023-09-19T03:42:40;16.40;;;10.70;;
74551;SDS011;63025;55.472;38.432;2023-09-19T03:45:09;16.45;;;10.02;;
74551;SDS011;63025;55.472;38.432;2023-09-19T03:47:41;16.55;;;9.95;;
74551;SDS011;63025;55.472;38.432;2023-09-19T03:50:09;14.77;;;9.43;;
74551;SDS011;63025;55.472;38.432;2023-09-19T03:52:41;17.70;;;9.77;;
74551;SDS011;63025;55.472;38.432;2023-09-19T03:55:07;16.70;;;9.82;;
74551;SDS011;63025;55.472;38.432;2023-09-19T03:57:37;17.50;;;9.88;;
74551;SDS011;63025;55.472;38.432;2023-09-19T04:00:03;18.48;;;10.30;;
74551;SDS011;63025;55.472;38.432;2023-09-19T04:02:40;16.52;;;9.70;;
74551;SDS011;63025;55.472;38.432;2023-09-19T04:05:07;15.98;;;10.38;;
74551;SDS011;63025;55.472;38.432;2023-09-19T04:07:34;29.05;;;22.20;;
74551;SDS011;63025;55.472;38.432;2023-09-19T04:10:00;17.55;;;11.95;;
74551;SDS011;63025;55.472;38.432;2023-09-19T04:12:30;16.05;;;10.48;;
74551;SDS011;63025;55.472;38.432;2023-09-19T04:14:56;16.85;;;10.10;;
74551;SDS011;63025;55.472;38.432;2023-09-19T04:17:22;17.85;;;12.57;;
74551;SDS011;63025;55.472;38.432;2023-09-19T04:19:49;12.63;;;8.50;;
74551;SDS011;63025;55.472;38.432;2023-09-19T04:22:14;14.57;;;8.88;;
74551;SDS011;63025;55.472;38.432;2023-09-19T04:24:40;12.98;;;8.55;;
74551;SDS011;63025;55.472;38.432;2023-09-19T04:27:06;14.50;;;9.20;;
74551;SDS011;63025;55.472;38.432;2023-09-19T04:29:32;38.17;;;19.40;;
74551;SDS011;63025;55.472;38.432;2023-09-19T04:31:58;33.03;;;18.33;;
74551;SDS011;63025;55.472;38.432;2023-09-19T04:34:24;82.88;;;41.22;;
74551;SDS011;63025;55.472;38.432;2023-09-19T04:36:50;40.70;;;23.63;;
74551;SDS011;63025;55.472;38.432;2023-09-19T04:39:16;31.48;;;19.58;;
74551;SDS011;63025;55.472;38.432;2023-09-19T04:41:43;38.53;;;23.98;;
74551;SDS011;63025;55.472;38.432;2023-09-19T04:44:10;32.67;;;20.02;;
74551;SDS011;63025;55.472;38.432;2023-09-19T04:46:36;15.70;;;9.07;;
74551;SDS011;63025;55.472;38.432;2023-09-19T04:49:02;16.73;;;11.25;;
74551;SDS011;63025;55.472;38.432;2023-09-19T04:51:28;12.50;;;8.05;;
74551;SDS011;63025;55.472;38.432;2023-09-19T04:54:00;15.05;;;9.30;;
74551;SDS011;63025;55.472;38.432;2023-09-19T04:56:26;14.98;;;9.68;;
74551;SDS011;63025;55.472;38.432;2023-09-19T04:58:54;14.20;;;9.93;;
74551;SDS011;63025;55.472;38.432;2023-09-19T05:01:20;18.25;;;11.63;;
74551;SDS011;63025;55.472;38.432;2023-09-19T05:03:48;20.20;;;11.50;;
74551;SDS011;63025;55.472;38.432;2023-09-19T05:06:21;17.95;;;10.27;;
74551;SDS011;63025;55.472;38.432;2023-09-19T05:08:47;19.10;;;11.90;;
74551;SDS011;63025;55.472;38.432;2023-09-19T05:11:20;13.85;;;8.75;;
74551;SDS011;63025;55.472;38.432;2023-09-19T05:13:49;15.32;;;10.55;;
74551;SDS011;63025;55.472;38.432;2023-09-19T05:16:21;15.25;;;10.02;;
74551;SDS011;63025;55.472;38.432;2023-09-19T05:18:47;19.20;;;12.43;;
74551;SDS011;63025;55.472;38.432;2023-09-19T05:21:15;15.20;;;10.45;;
74551;SDS011;63025;55.472;38.432;2023-09-19T05:23:41;15.23;;;9.82;;
74551;SDS011;63025;55.472;38.432;2023-09-19T05:26:07;19.55;;;10.55;;
74551;SDS011;63025;55.472;38.432;2023-09-19T05:28:33;15.57;;;9.13;;
74551;SDS011;63025;55.472;38.432;2023-09-19T05:31:03;17.17;;;9.77;;
74551;SDS011;63025;55.472;38.432;2023-09-19T05:33:29;12.88;;;8.98;;
74551;SDS011;63025;55.472;38.432;2023-09-19T05:35:56;15.63;;;8.13;;
74551;SDS011;63025;55.472;38.432;2023-09-19T05:38:22;15.13;;;8.73;;
74551;SDS011;63025;55.472;38.432;2023-09-19T05:40:49;13.98;;;8.77;;
74551;SDS011;63025;55.472;38.432;2023-09-19T05:43:15;13.27;;;8.23;;
74551;SDS011;63025;55.472;38.432;2023-09-19T05:45:41;15.15;;;8.65;;
74551;SDS011;63025;55.472;38.432;2023-09-19T05:48:15;14.13;;;8.35;;
74551;SDS011;63025;55.472;38.432;2023-09-19T05:50:42;14.63;;;8.82;;
74551;SDS011;63025;55.472;38.432;2023-09-19T05:53:09;12.23;;;8.60;;
74551;SDS011;63025;55.472;38.432;2023-09-19T05:55:38;12.43;;;8.10;;
74551;SDS011;63025;55.472;38.432;2023-09-19T05:58:04;16.38;;;9.38;;
74551;SDS011;63025;55.472;38.432;2023-09-19T06:00:30;13.27;;;8.50;;
74551;SDS011;63025;55.472;38.432;2023-09-19T06:02:58;16.40;;;9.18;;
74551;SDS011;63025;55.472;38.432;2023-09-19T06:05:25;14.02;;;8.55;;
74551;SDS011;63025;55.472;38.432;2023-09-19T06:07:57;14.15;;;8.77;;
74551;SDS011;63025;55.472;38.432;2023-09-19T06:10:26;16.60;;;9.73;;
74551;SDS011;63025;55.472;38.432;2023-09-19T06:12:53;14.95;;;9.52;;
74551;SDS011;63025;55.472;38.432;2023-09-19T06:15:20;14.40;;;9.23;;
74551;SDS011;63025;55.472;38.432;2023-09-19T06:17:51;14.38;;;9.75;;
74551;SDS011;63025;55.472;38.432;2023-09-19T06:20:22;14.80;;;8.93;;
74551;SDS011;63025;55.472;38.432;2023-09-19T06:22:50;17.20;;;10.27;;
74551;SDS011;63025;55.472;38.432;2023-09-19T06:25:17;15.55;;;9.23;;
74551;SDS011;63025;55.472;38.432;2023-09-19T06:27:51;15.88;;;9.18;;
74551;SDS011;63025;55.472;38.432;2023-09-19T06:30:20;21.77;;;12.47;;
74551;SDS011;63025;55.472;38.432;2023-09-19T06:32:47;31.52;;;16.73;;
74551;SDS011;63025;55.472;38.432;2023-09-19T06:35:14;17.05;;;9.93;;
74551;SDS011;63025;55.472;38.432;2023-09-19T06:37:41;21.30;;;9.18;;
74551;SDS011;63025;55.472;38.432;2023-09-19T06:40:10;16.52;;;10.55;;
74551;SDS011;63025;55.472;38.432;2023-09-19T06:42:43;21.73;;;12.00;;
74551;SDS011;63025;55.472;38.432;2023-09-19T06:45:11;26.85;;;16.05;;
74551;SDS011;63025;55.472;38.432;2023-09-19T06:47:39;15.98;;;9.95;;
74551;SDS011;63025;55.472;38.432;2023-09-19T06:50:05;13.32;;;9.70;;
74551;SDS011;63025;55.472;38.432;2023-09-19T06:52:34;24.67;;;15.18;;
74551;SDS011;63025;55.472;38.432;2023-09-19T06:55:00;33.90;;;17.73;;
74551;SDS011;63025;55.472;38.432;2023-09-19T06:57:29;17.83;;;11.70;;
74551;SDS011;63025;55.472;38.432;2023-09-19T06:59:56;17.95;;;10.95;;
74551;SDS011;63025;55.472;38.432;2023-09-19T07:02:22;16.52;;;11.00;;
74551;SDS011;63025;55.472;38.432;2023-09-19T07:04:47;15.63;;;10.32;;
74551;SDS011;63025;55.472;38.432;2023-09-19T07:07:15;20.38;;;10.45;;
74551;SDS011;63025;55.472;38.432;2023-09-19T07:09:41;16.88;;;10.68;;
74551;SDS011;63025;55.472;38.432;2023-09-19T07:12:07;15.05;;;10.05;;
74551;SDS011;63025;55.472;38.432;2023-09-19T07:14:33;16.08;;;9.73;;
74551;SDS011;63025;55.472;38.432;2023-09-19T07:16:59;14.77;;;9.57;;
74551;SDS011;63025;55.472;38.432;2023-09-19T07:19:25;14.70;;;9.60;;
74551;SDS011;63025;55.472;38.432;2023-09-19T07:21:54;16.40;;;10.02;;
74551;SDS011;63025;55.472;38.432;2023-09-19T07:24:19;14.75;;;9.65;;
74551;SDS011;63025;55.472;38.432;2023-09-19T07:26:48;14.13;;;9.93;;
74551;SDS011;63025;55.472;38.432;2023-09-19T07:29:14;13.98;;;8.77;;
74551;SDS011;63025;55.472;38.432;2023-09-19T07:31:40;12.00;;;8.43;;
74551;SDS011;63025;55.472;38.432;2023-09-19T07:34:07;12.27;;;8.70;;
74551;SDS011;63025;55.472;38.432;2023-09-19T07:36:34;14.40;;;9.00;;
74551;SDS011;63025;55.472;38.432;2023-09-19T07:39:02;11.93;;;7.63;;
74551;SDS011;63025;55.472;38.432;2023-09-19T07:41:32;12.23;;;8.50;;
74551;SDS011;63025;55.472;38.432;2023-09-19T07:43:59;14.38;;;8.15;;
74551;SDS011;63025;55.472;38.432;2023-09-19T07:46:25;12.13;;;7.50;;
74551;SDS011;63025;55.472;38.432;2023-09-19T07:48:51;13.00;;;8.23;;
74551;SDS011;63025;55.472;38.432;2023-09-19T07:51:17;14.00;;;8.20;;
74551;SDS011;63025;55.472;38.432;2023-09-19T07:53:43;11.30;;;8.52;;
74551;SDS011;63025;55.472;38.432;2023-09-19T07:56:09;13.82;;;8.35;;
74551;SDS011;63025;55.472;38.432;2023-09-19T07:58:35;11.45;;;8.90;;
74551;SDS011;63025;55.472;38.432;2023-09-19T08:01:07;13.50;;;8.77;;
74551;SDS011;63025;55.472;38.432;2023-09-19T08:03:33;15.93;;;9.13;;
74551;SDS011;63025;55.472;38.432;2023-09-19T08:06:00;14.98;;;9.35;;
74551;SDS011;63025;55.472;38.432;2023-09-19T08:08:26;13.25;;;9.15;;
74551;SDS011;63025;55.472;38.432;2023-09-19T08:10:53;15.50;;;9.20;;
74551;SDS011;63025;55.472;38.432;2023-09-19T08:13:25;17.48;;;9.05;;
74551;SDS011;63025;55.472;38.432;2023-09-19T08:15:51;16.27;;;8.52;;
74551;SDS011;63025;55.472;38.432;2023-09-19T08:18:20;13.35;;;8.68;;
74551;SDS011;63025;55.472;38.432;2023-09-19T08:20:49;13.27;;;7.72;;
74551;SDS011;63025;55.472;38.432;2023-09-19T08:23:16;16.25;;;8.77;;
74551;SDS011;63025;55.472;38.432;2023-09-19T08:25:46;19.40;;;9.30;;
74551;SDS011;63025;55.472;38.432;2023-09-19T08:28:12;13.13;;;8.90;;
74551;SDS011;63025;55.472;38.432;2023-09-19T08:30:43;12.48;;;8.57;;
74551;SDS011;63025;55.472;38.432;2023-09-19T08:33:09;16.20;;;9.45;;
74551;SDS011;63025;55.472;38.432;2023-09-19T08:35:35;17.13;;;9.43;;
74551;SDS011;63025;55.472;38.432;2023-09-19T08:38:03;16.05;;;8.27;;
74551;SDS011;63025;55.472;38.432;2023-09-19T08:40:29;14.55;;;8.55;;
74551;SDS011;63025;55.472;38.432;2023-09-19T08:42:59;19.25;;;8.55;;
74551;SDS011;63025;55.472;38.432;2023-09-19T08:45:26;13.35;;;8.18;;
74551;SDS011;63025;55.472;38.432;2023-09-19T08:50:33;14.13;;;8.13;;
74551;SDS011;63025;55.472;38.432;2023-09-19T08:53:10;12.27;;;7.70;;
74551;SDS011;63025;55.472;38.432;2023-09-19T08:55:39;13.32;;;8.05;;
74551;SDS011;63025;55.472;38.432;2023-09-19T08:58:08;14.82;;;8.27;;
74551;SDS011;63025;55.472;38.432;2023-09-19T09:00:45;15.07;;;8.55;;
74551;SDS011;63025;55.472;38.432;2023-09-19T09:03:15;14.18;;;8.68;;
74551;SDS011;63025;55.472;38.432;2023-09-19T09:05:44;14.35;;;9.10;;
74551;SDS011;63025;55.472;38.432;2023-09-19T09:08:12;13.07;;;8.45;;
74551;SDS011;63025;55.472;38.432;2023-09-19T09:10:39;13.98;;;8.10;;
74551;SDS011;63025;55.472;38.432;2023-09-19T09:13:06;13.90;;;8.35;;
74551;SDS011;63025;55.472;38.432;2023-09-19T09:15:34;13.02;;;8.88;;
74551;SDS011;63025;55.472;38.432;2023-09-19T09:18:01;15.23;;;8.63;;
74551;SDS011;63025;55.472;38.432;2023-09-19T09:20:28;15.63;;;8.82;;
74551;SDS011;63025;55.472;38.432;2023-09-19T09:22:54;12.80;;;8.20;;
74551;SDS011;63025;55.472;38.432;2023-09-19T09:28:28;14.82;;;8.95;;
74551;SDS011;63025;55.472;38.432;2023-09-19T09:30:57;13.00;;;9.77;;
74551;SDS011;63025;55.472;38.432;2023-09-19T09:33:33;17.90;;;10.90;;
74551;SDS011;63025;55.472;38.432;2023-09-19T09:36:01;17.70;;;10.02;;
74551;SDS011;63025;55.472;38.432;2023-09-19T09:38:30;18.10;;;10.98;;
74551;SDS011;63025;55.472;38.432;2023-09-19T09:41:09;15.75;;;10.00;;
74551;SDS011;63025;55.472;38.432;2023-09-19T09:43:40;18.63;;;10.40;;
74551;SDS011;63025;55.472;38.432;2023-09-19T09:46:12;16.80;;;10.75;;
74551;SDS011;63025;55.472;38.432;2023-09-19T09:51:40;14.18;;;9.88;;
74551;SDS011;63025;55.472;38.432;2023-09-19T09:54:23;17.80;;;11.10;;
74551;SDS011;63025;55.472;38.432;2023-09-19T10:02:41;15.30;;;10.93;;
74551;SDS011;63025;55.472;38.432;2023-09-19T10:05:25;16.65;;;10.15;;
74551;SDS011;63025;55.472;38.432;2023-09-19T10:08:11;14.23;;;9.98;;
74551;SDS011;63025;55.472;38.432;2023-09-19T10:10:39;14.15;;;9.82;;
74551;SDS011;63025;55.472;38.432;2023-09-19T10:13:09;20.55;;;10.23;;
74551;SDS011;63025;55.472;38.432;2023-09-19T10:15:44;17.53;;;9.87;;
74551;SDS011;63025;55.472;38.432;2023-09-19T10:18:19;14.20;;;8.98;;
74551;SDS011;63025;55.472;38.432;2023-09-19T10:20:49;18.55;;;9.30;;
74551;SDS011;63025;55.472;38.432;2023-09-19T10:23:17;13.02;;;8.38;;
74551;SDS011;63025;55.472;38.432;2023-09-19T10:25:52;13.15;;;8.50;;
74551;SDS011;63025;55.472;38.432;2023-09-19T10:28:19;12.80;;;7.97;;
74551;SDS011;63025;55.472;38.432;2023-09-19T10:30:47;13.32;;;8.10;;
74551;SDS011;63025;55.472;38.432;2023-09-19T10:33:19;15.05;;;8.48;;
74551;SDS011;63025;55.472;38.432;2023-09-19T10:35:50;12.07;;;8.32;;
74551;SDS011;63025;55.472;38.432;2023-09-19T10:38:21;14.85;;;7.85;;
74551;SDS011;63025;55.472;38.432;2023-09-19T10:40:51;11.88;;;8.10;;
74551;SDS011;63025;55.472;38.432;2023-09-19T10:43:19;12.95;;;7.57;;
74551;SDS011;63025;55.472;38.432;2023-09-19T10:45:49;13.00;;;8.32;;
74551;SDS011;63025;55.472;38.432;2023-09-19T10:48:18;12.00;;;7.40;;
74551;SDS011;63025;55.472;38.432;2023-09-19T10:50:47;15.68;;;7.97;;
74551;SDS011;63025;55.472;38.432;2023-09-19T10:53:16;11.65;;;9.20;;
74551;SDS011;63025;55.472;38.432;2023-09-19T10:55:50;17.10;;;8.45;;
74551;SDS011;63025;55.472;38.432;2023-09-19T10:58:24;12.35;;;7.78;;
74551;SDS011;63025;55.472;38.432;2023-09-19T11:00:55;12.02;;;7.82;;
74551;SDS011;63025;55.472;38.432;2023-09-19T11:03:23;15.52;;;8.93;;
74551;SDS011;63025;55.472;38.432;2023-09-19T11:08:50;12.90;;;8.02;;
74551;SDS011;63025;55.472;38.432;2023-09-19T11:11:42;16.63;;;8.30;;
74551;SDS011;63025;55.472;38.432;2023-09-19T11:30:32;14.40;;;7.13;;
74551;SDS011;63025;55.472;38.432;2023-09-19T11:41:45;11.52;;;7.65;;
74551;SDS011;63025;55.472;38.432;2023-09-19T11:46:31;16.42;;;7.60;;
74551;SDS011;63025;55.472;38.432;2023-09-19T11:49:05;12.75;;;8.15;;
74551;SDS011;63025;55.472;38.432;2023-09-19T11:51:43;13.82;;;7.97;;
74551;SDS011;63025;55.472;38.432;2023-09-19T11:54:11;11.27;;;7.97;;
74551;SDS011;63025;55.472;38.432;2023-09-19T11:56:44;13.70;;;7.38;;
74551;SDS011;63025;55.472;38.432;2023-09-19T11:59:11;15.45;;;8.45;;
74551;SDS011;63025;55.472;38.432;2023-09-19T12:01:50;11.60;;;8.10;;
74551;SDS011;63025;55.472;38.432;2023-09-19T12:04:41;16.05;;;7.97;;
74551;SDS011;63025;55.472;38.432;2023-09-19T12:07:11;13.13;;;8.13;;
74551;SDS011;63025;55.472;38.432;2023-09-19T12:09:42;15.70;;;8.00;;
74551;SDS011;63025;55.472;38.432;2023-09-19T12:12:10;13.68;;;8.20;;
74551;SDS011;63025;55.472;38.432;2023-09-19T12:14:41;11.48;;;7.90;;
74551;SDS011;63025;55.472;38.432;2023-09-19T12:17:08;10.93;;;7.53;;
74551;SDS011;63025;55.472;38.432;2023-09-19T12:19:34;12.75;;;7.50;;
74551;SDS011;63025;55.472;38.432;2023-09-19T12:22:00;13.48;;;7.72;;
74551;SDS011;63025;55.472;38.432;2023-09-19T12:24:31;13.93;;;7.78;;
74551;SDS011;63025;55.472;38.432;2023-09-19T12:27:05;15.50;;;8.30;;
74551;SDS011;63025;55.472;38.432;2023-09-19T12:29:32;14.73;;;8.25;;
74551;SDS011;63025;55.472;38.432;2023-09-19T12:32:10;13.15;;;7.68;;
74551;SDS011;63025;55.472;38.432;2023-09-19T12:34:36;14.02;;;7.63;;
74551;SDS011;63025;55.472;38.432;2023-09-19T12:37:11;13.38;;;7.65;;
74551;SDS011;63025;55.472;38.432;2023-09-19T12:39:41;10.40;;;7.28;;
74551;SDS011;63025;55.472;38.432;2023-09-19T12:42:12;11.10;;;7.93;;
74551;SDS011;63025;55.472;38.432;2023-09-19T12:44:42;14.73;;;8.18;;
74551;SDS011;63025;55.472;38.432;2023-09-19T12:47:16;14.55;;;8.43;;
74551;SDS011;63025;55.472;38.432;2023-09-19T12:52:39;15.82;;;8.15;;
74551;SDS011;63025;55.472;38.432;2023-09-19T12:55:06;14.05;;;7.85;;
74551;SDS011;63025;55.472;38.432;2023-09-19T12:57:34;13.35;;;7.50;;
74551;SDS011;63025;55.472;38.432;2023-09-19T13:00:04;14.90;;;7.57;;
74551;SDS011;63025;55.472;38.432;2023-09-19T13:02:31;13.00;;;7.18;;
74551;SDS011;63025;55.472;38.432;2023-09-19T13:04:58;12.55;;;7.57;;
74551;SDS011;63025;55.472;38.432;2023-09-19T13:07:44;16.40;;;7.75;;
74551;SDS011;63025;55.472;38.432;2023-09-19T13:10:14;12.88;;;7.35;;
74551;SDS011;63025;55.472;38.432;2023-09-19T13:12:42;11.23;;;7.88;;
74551;SDS011;63025;55.472;38.432;2023-09-19T13:15:14;14.55;;;8.13;;
74551;SDS011;63025;55.472;38.432;2023-09-19T13:17:46;19.08;;;8.10;;
74551;SDS011;63025;55.472;38.432;2023-09-19T13:20:53;12.93;;;7.60;;
74551;SDS011;63025;55.472;38.432;2023-09-19T13:23:26;12.27;;;7.93;;
74551;SDS011;63025;55.472;38.432;2023-09-19T13:25:52;14.73;;;8.18;;
74551;SDS011;63025;55.472;38.432;2023-09-19T13:28:18;12.63;;;7.80;;
74551;SDS011;63025;55.472;38.432;2023-09-19T13:30:44;21.40;;;14.23;;
74551;SDS011;63025;55.472;38.432;2023-09-19T13:33:11;14.07;;;9.45;;
74551;SDS011;63025;55.472;38.432;2023-09-19T13:35:39;13.45;;;8.35;;
74551;SDS011;63025;55.472;38.432;2023-09-19T13:38:07;17.08;;;10.68;;
74551;SDS011;63025;55.472;38.432;2023-09-19T13:40:38;20.40;;;14.88;;
74551;SDS011;63025;55.472;38.432;2023-09-19T13:43:05;15.73;;;10.73;;
74551;SDS011;63025;55.472;38.432;2023-09-19T13:45:32;17.88;;;13.23;;
74551;SDS011;63025;55.472;38.432;2023-09-19T13:47:58;12.63;;;8.93;;
74551;SDS011;63025;55.472;38.432;2023-09-19T13:50:26;12.90;;;8.80;;
74551;SDS011;63025;55.472;38.432;2023-09-19T13:52:54;13.00;;;8.48;;
74551;SDS011;63025;55.472;38.432;2023-09-19T13:55:21;26.63;;;15.65;;
74551;SDS011;63025;55.472;38.432;2023-09-19T13:57:47;27.45;;;16.35;;
74551;SDS011;63025;55.472;38.432;2023-09-19T14:00:18;52.15;;;32.42;;
74551;SDS011;63025;55.472;38.432;2023-09-19T14:02:44;62.95;;;38.08;;
74551;SDS011;63025;55.472;38.432;2023-09-19T14:05:12;32.58;;;20.33;;
74551;SDS011;63025;55.472;38.432;2023-09-19T14:07:41;24.02;;;15.48;;
74551;SDS011;63025;55.472;38.432;2023-09-19T14:10:07;23.40;;;14.13;;
74551;SDS011;63025;55.472;38.432;2023-09-19T14:12:36;24.75;;;15.43;;
74551;SDS011;63025;55.472;38.432;2023-09-19T14:17:34;25.83;;;16.65;;
74551;SDS011;63025;55.472;38.432;2023-09-19T14:20:00;43.78;;;25.63;;
74551;SDS011;63025;55.472;38.432;2023-09-19T14:22:26;41.47;;;25.30;;
74551;SDS011;63025;55.472;38.432;2023-09-19T14:24:51;41.10;;;28.35;;
74551;SDS011;63025;55.472;38.432;2023-09-19T14:27:18;33.80;;;23.13;;
74551;SDS011;63025;55.472;38.432;2023-09-19T14:29:44;37.38;;;25.23;;
74551;SDS011;63025;55.472;38.432;2023-09-19T14:32:10;25.67;;;17.65;;
74551;SDS011;63025;55.472;38.432;2023-09-19T14:34:36;35.60;;;22.95;;
74551;SDS011;63025;55.472;38.432;2023-09-19T14:37:07;54.65;;;33.13;;
74551;SDS011;63025;55.472;38.432;2023-09-19T14:39:34;34.30;;;23.13;;
74551;SDS011;63025;55.472;38.432;2023-09-19T14:41:59;29.35;;;19.17;;
74551;SDS011;63025;55.472;38.432;2023-09-19T14:44:25;22.48;;;15.27;;
74551;SDS011;63025;55.472;38.432;2023-09-19T14:46:51;28.05;;;16.20;;
74551;SDS011;63025;55.472;38.432;2023-09-19T14:49:17;19.80;;;12.90;;
74551;SDS011;63025;55.472;38.432;2023-09-19T14:51:42;17.25;;;11.23;;
74551;SDS011;63025;55.472;38.432;2023-09-19T14:54:10;19.55;;;11.05;;
74551;SDS011;63025;55.472;38.432;2023-09-19T14:56:36;16.70;;;11.05;;
74551;SDS011;63025;55.472;38.432;2023-09-19T14:59:01;29.23;;;18.13;;
74551;SDS011;63025;55.472;38.432;2023-09-19T15:01:28;29.08;;;17.38;;
74551;SDS011;63025;55.472;38.432;2023-09-19T15:03:53;20.23;;;12.35;;
74551;SDS011;63025;55.472;38.432;2023-09-19T15:06:20;21.17;;;12.90;;
74551;SDS011;63025;55.472;38.432;2023-09-19T15:08:47;20.92;;;13.85;;
74551;SDS011;63025;55.472;38.432;2023-09-19T15:11:17;36.97;;;21.95;;
74551;SDS011;63025;55.472;38.432;2023-09-19T15:13:44;44.13;;;26.80;;
74551;SDS011;63025;55.472;38.432;2023-09-19T15:16:11;38.90;;;23.65;;
74551;SDS011;63025;55.472;38.432;2023-09-19T15:18:39;41.67;;;26.25;;
74551;SDS011;63025;55.472;38.432;2023-09-19T15:21:13;42.15;;;27.30;;
74551;SDS011;63025;55.472;38.432;2023-09-19T15:23:40;50.72;;;32.90;;
74551;SDS011;63025;55.472;38.432;2023-09-19T15:26:07;49.38;;;32.45;;
74551;SDS011;63025;55.472;38.432;2023-09-19T15:28:37;54.95;;;33.72;;